sensor_id;sensor_type;location;lat;lon;timestamp;P1;durP1;ratioP1;P2;durP2;ratioP2
11054;SDS011;5580;50.106;8.702;2023-07-13T00:02:02;6.77;;;3.23;;
11054;SDS011;5580;50.106;8.702;2023-07-13T00:04:28;7.63;;;3.30;;
11054;SDS011;5580;50.106;8.702;2023-07-13T00:06:54;6.07;;;3.17;;
11054;SDS011;5580;50.106;8.702;2023-07-13T00:09:19;5.17;;;3.40;;
11054;SDS011;5580;50.106;8.702;2023-07-13T00:11:50;5.87;;;3.27;;
11054;SDS011;5580;50.106;8.702;2023-07-13T00:14:18;6.60;;;3.60;;
11054;SDS011;5580;50.106;8.702;2023-07-13T00:16:44;4.63;;;3.30;;
11054;SDS011;5580;50.106;8.702;2023-07-13T00:19:11;6.17;;;3.20;;
11054;SDS011;5580;50.106;8.702;2023-07-13T00:21:37;8.07;;;3.43;;
11054;SDS011;5580;50.106;8.702;2023-07-13T00:24:04;3.67;;;2.97;;
11054;SDS011;5580;50.106;8.702;2023-07-13T00:26:30;4.63;;;3.20;;
11054;SDS011;5580;50.106;8.702;2023-07-13T00:28:57;4.93;;;2.77;;
11054;SDS011;5580;50.106;8.702;2023-07-13T00:31:23;3.77;;;2.90;;
11054;SDS011;5580;50.106;8.702;2023-07-13T00:33:49;4.73;;;3.17;;
11054;SDS011;5580;50.106;8.702;2023-07-13T00:36:15;7.73;;;3.23;;
11054;SDS011;5580;50.106;8.702;2023-07-13T00:38:40;6.37;;;3.30;;
11054;SDS011;5580;50.106;8.702;2023-07-13T00:41:06;6.87;;;3.23;;
11054;SDS011;5580;50.106;8.702;2023-07-13T00:43:32;7.57;;;3.23;;
11054;SDS011;5580;50.106;8.702;2023-07-13T00:48:25;5.53;;;3.40;;
11054;SDS011;5580;50.106;8.702;2023-07-13T00:50:54;4.60;;;3.03;;
11054;SDS011;5580;50.106;8.702;2023-07-13T00:53:23;4.20;;;2.97;;
11054;SDS011;5580;50.106;8.702;2023-07-13T00:55:54;7.13;;;3.20;;
11054;SDS011;5580;50.106;8.702;2023-07-13T00:58:21;6.37;;;3.30;;
11054;SDS011;5580;50.106;8.702;2023-07-13T01:00:47;5.73;;;2.90;;
11054;SDS011;5580;50.106;8.702;2023-07-13T01:03:14;3.87;;;3.03;;
11054;SDS011;5580;50.106;8.702;2023-07-13T01:05:40;6.00;;;3.30;;
11054;SDS011;5580;50.106;8.702;2023-07-13T01:08:05;5.00;;;2.90;;
11054;SDS011;5580;50.106;8.702;2023-07-13T01:10:31;4.60;;;3.20;;
11054;SDS011;5580;50.106;8.702;2023-07-13T01:13:04;4.87;;;3.03;;
11054;SDS011;5580;50.106;8.702;2023-07-13T01:18:07;5.53;;;3.10;;
11054;SDS011;5580;50.106;8.702;2023-07-13T01:20:35;3.93;;;2.90;;
11054;SDS011;5580;50.106;8.702;2023-07-13T01:23:09;5.53;;;3.13;;
11054;SDS011;5580;50.106;8.702;2023-07-13T01:25:38;5.20;;;3.30;;
11054;SDS011;5580;50.106;8.702;2023-07-13T01:28:04;5.30;;;2.83;;
11054;SDS011;5580;50.106;8.702;2023-07-13T01:30:31;7.07;;;2.97;;
11054;SDS011;5580;50.106;8.702;2023-07-13T01:32:57;5.53;;;2.67;;
11054;SDS011;5580;50.106;8.702;2023-07-13T01:35:23;6.50;;;3.00;;
11054;SDS011;5580;50.106;8.702;2023-07-13T01:37:50;6.37;;;3.17;;
11054;SDS011;5580;50.106;8.702;2023-07-13T01:40:16;8.53;;;3.03;;
11054;SDS011;5580;50.106;8.702;2023-07-13T01:42:41;4.87;;;2.60;;
11054;SDS011;5580;50.106;8.702;2023-07-13T01:45:07;6.40;;;3.03;;
11054;SDS011;5580;50.106;8.702;2023-07-13T01:47:33;5.43;;;3.20;;
11054;SDS011;5580;50.106;8.702;2023-07-13T01:49:58;6.80;;;2.93;;
11054;SDS011;5580;50.106;8.702;2023-07-13T01:52:24;6.30;;;3.10;;
11054;SDS011;5580;50.106;8.702;2023-07-13T01:54:50;4.47;;;2.90;;
11054;SDS011;5580;50.106;8.702;2023-07-13T01:57:15;7.93;;;3.17;;
11054;SDS011;5580;50.106;8.702;2023-07-13T01:59:41;11.03;;;3.40;;
11054;SDS011;5580;50.106;8.702;2023-07-13T02:02:06;6.00;;;2.73;;
11054;SDS011;5580;50.106;8.702;2023-07-13T02:04:32;6.13;;;3.00;;
11054;SDS011;5580;50.106;8.702;2023-07-13T02:06:58;7.17;;;3.70;;
11054;SDS011;5580;50.106;8.702;2023-07-13T02:09:24;4.97;;;2.90;;
11054;SDS011;5580;50.106;8.702;2023-07-13T02:11:49;4.93;;;3.07;;
11054;SDS011;5580;50.106;8.702;2023-07-13T02:14:15;6.20;;;3.00;;
11054;SDS011;5580;50.106;8.702;2023-07-13T02:16:41;4.17;;;2.57;;
11054;SDS011;5580;50.106;8.702;2023-07-13T02:19:07;6.20;;;3.10;;
11054;SDS011;5580;50.106;8.702;2023-07-13T02:21:32;4.83;;;3.13;;
11054;SDS011;5580;50.106;8.702;2023-07-13T02:23:58;7.60;;;3.20;;
11054;SDS011;5580;50.106;8.702;2023-07-13T02:26:24;4.57;;;2.87;;
11054;SDS011;5580;50.106;8.702;2023-07-13T02:28:50;8.10;;;3.00;;
11054;SDS011;5580;50.106;8.702;2023-07-13T02:31:16;6.30;;;3.03;;
11054;SDS011;5580;50.106;8.702;2023-07-13T02:33:41;4.57;;;3.00;;
11054;SDS011;5580;50.106;8.702;2023-07-13T02:36:08;5.13;;;2.63;;
11054;SDS011;5580;50.106;8.702;2023-07-13T02:38:34;4.83;;;2.70;;
11054;SDS011;5580;50.106;8.702;2023-07-13T02:41:01;7.10;;;3.00;;
11054;SDS011;5580;50.106;8.702;2023-07-13T02:43:28;4.90;;;2.93;;
11054;SDS011;5580;50.106;8.702;2023-07-13T02:45:54;6.57;;;2.80;;
11054;SDS011;5580;50.106;8.702;2023-07-13T02:48:20;7.13;;;3.00;;
11054;SDS011;5580;50.106;8.702;2023-07-13T02:50:45;4.80;;;3.10;;
11054;SDS011;5580;50.106;8.702;2023-07-13T02:53:11;3.10;;;2.37;;
11054;SDS011;5580;50.106;8.702;2023-07-13T02:55:37;5.43;;;2.77;;
11054;SDS011;5580;50.106;8.702;2023-07-13T02:58:03;6.30;;;3.30;;
11054;SDS011;5580;50.106;8.702;2023-07-13T03:00:29;6.13;;;3.03;;
11054;SDS011;5580;50.106;8.702;2023-07-13T03:02:54;4.83;;;2.90;;
11054;SDS011;5580;50.106;8.702;2023-07-13T03:05:22;5.93;;;3.00;;
11054;SDS011;5580;50.106;8.702;2023-07-13T03:07:48;5.57;;;3.07;;
11054;SDS011;5580;50.106;8.702;2023-07-13T03:10:14;5.63;;;2.80;;
11054;SDS011;5580;50.106;8.702;2023-07-13T03:12:39;3.77;;;2.50;;
11054;SDS011;5580;50.106;8.702;2023-07-13T03:15:05;4.27;;;2.97;;
11054;SDS011;5580;50.106;8.702;2023-07-13T03:17:31;5.53;;;2.80;;
11054;SDS011;5580;50.106;8.702;2023-07-13T03:19:57;5.37;;;3.00;;
11054;SDS011;5580;50.106;8.702;2023-07-13T03:22:22;10.03;;;2.80;;
11054;SDS011;5580;50.106;8.702;2023-07-13T03:24:48;6.13;;;2.83;;
11054;SDS011;5580;50.106;8.702;2023-07-13T03:27:14;5.43;;;2.90;;
11054;SDS011;5580;50.106;8.702;2023-07-13T03:29:42;5.43;;;2.87;;
11054;SDS011;5580;50.106;8.702;2023-07-13T03:32:08;6.17;;;2.67;;
11054;SDS011;5580;50.106;8.702;2023-07-13T03:34:34;6.07;;;2.90;;
11054;SDS011;5580;50.106;8.702;2023-07-13T03:36:59;6.23;;;3.03;;
11054;SDS011;5580;50.106;8.702;2023-07-13T03:39:25;6.37;;;2.67;;
11054;SDS011;5580;50.106;8.702;2023-07-13T03:41:51;7.33;;;3.33;;
11054;SDS011;5580;50.106;8.702;2023-07-13T03:44:17;8.30;;;3.63;;
11054;SDS011;5580;50.106;8.702;2023-07-13T03:46:43;5.83;;;3.60;;
11054;SDS011;5580;50.106;8.702;2023-07-13T03:49:10;7.30;;;3.97;;
11054;SDS011;5580;50.106;8.702;2023-07-13T03:51:36;8.77;;;4.20;;
11054;SDS011;5580;50.106;8.702;2023-07-13T03:54:02;8.17;;;4.30;;
11054;SDS011;5580;50.106;8.702;2023-07-13T03:56:28;8.73;;;4.83;;
11054;SDS011;5580;50.106;8.702;2023-07-13T03:58:55;7.93;;;3.97;;
11054;SDS011;5580;50.106;8.702;2023-07-13T04:01:22;9.03;;;4.20;;
11054;SDS011;5580;50.106;8.702;2023-07-13T04:03:49;10.57;;;4.60;;
11054;SDS011;5580;50.106;8.702;2023-07-13T04:06:20;9.23;;;4.50;;
11054;SDS011;5580;50.106;8.702;2023-07-13T04:08:49;8.90;;;4.50;;
11054;SDS011;5580;50.106;8.702;2023-07-13T04:11:17;7.43;;;3.97;;
11054;SDS011;5580;50.106;8.702;2023-07-13T04:13:43;6.40;;;3.83;;
11054;SDS011;5580;50.106;8.702;2023-07-13T04:16:09;8.33;;;4.03;;
11054;SDS011;5580;50.106;8.702;2023-07-13T04:18:35;9.57;;;4.23;;
11054;SDS011;5580;50.106;8.702;2023-07-13T04:21:01;7.60;;;4.33;;
11054;SDS011;5580;50.106;8.702;2023-07-13T04:23:27;9.47;;;4.27;;
11054;SDS011;5580;50.106;8.702;2023-07-13T04:25:52;8.60;;;3.90;;
11054;SDS011;5580;50.106;8.702;2023-07-13T04:28:19;7.50;;;4.00;;
11054;SDS011;5580;50.106;8.702;2023-07-13T04:30:49;8.53;;;3.90;;
11054;SDS011;5580;50.106;8.702;2023-07-13T04:33:15;8.00;;;3.73;;
11054;SDS011;5580;50.106;8.702;2023-07-13T04:35:42;6.17;;;3.50;;
11054;SDS011;5580;50.106;8.702;2023-07-13T04:38:08;8.37;;;3.87;;
11054;SDS011;5580;50.106;8.702;2023-07-13T04:40:36;7.30;;;3.70;;
11054;SDS011;5580;50.106;8.702;2023-07-13T04:43:02;6.83;;;3.60;;
11054;SDS011;5580;50.106;8.702;2023-07-13T04:45:28;7.27;;;3.40;;
11054;SDS011;5580;50.106;8.702;2023-07-13T04:47:53;8.80;;;3.30;;
11054;SDS011;5580;50.106;8.702;2023-07-13T04:50:19;6.77;;;3.50;;
11054;SDS011;5580;50.106;8.702;2023-07-13T04:52:48;8.53;;;3.40;;
11054;SDS011;5580;50.106;8.702;2023-07-13T04:55:15;8.13;;;3.43;;
11054;SDS011;5580;50.106;8.702;2023-07-13T04:57:41;7.67;;;3.47;;
11054;SDS011;5580;50.106;8.702;2023-07-13T05:00:06;6.30;;;3.27;;
11054;SDS011;5580;50.106;8.702;2023-07-13T05:02:33;7.53;;;3.03;;
11054;SDS011;5580;50.106;8.702;2023-07-13T05:05:00;6.03;;;2.87;;
11054;SDS011;5580;50.106;8.702;2023-07-13T05:07:26;3.87;;;2.80;;
11054;SDS011;5580;50.106;8.702;2023-07-13T05:09:52;6.63;;;3.00;;
11054;SDS011;5580;50.106;8.702;2023-07-13T05:12:17;5.10;;;2.70;;
11054;SDS011;5580;50.106;8.702;2023-07-13T05:14:43;6.37;;;2.73;;
11054;SDS011;5580;50.106;8.702;2023-07-13T05:17:09;6.43;;;2.70;;
11054;SDS011;5580;50.106;8.702;2023-07-13T05:19:35;6.07;;;2.80;;
11054;SDS011;5580;50.106;8.702;2023-07-13T05:22:00;4.67;;;2.43;;
11054;SDS011;5580;50.106;8.702;2023-07-13T05:24:27;8.67;;;2.97;;
11054;SDS011;5580;50.106;8.702;2023-07-13T05:26:53;9.20;;;3.30;;
11054;SDS011;5580;50.106;8.702;2023-07-13T05:29:19;4.67;;;2.90;;
11054;SDS011;5580;50.106;8.702;2023-07-13T05:31:45;6.87;;;2.70;;
11054;SDS011;5580;50.106;8.702;2023-07-13T05:34:11;7.97;;;2.80;;
11054;SDS011;5580;50.106;8.702;2023-07-13T05:36:36;2.87;;;2.37;;
11054;SDS011;5580;50.106;8.702;2023-07-13T05:39:02;4.17;;;2.47;;
11054;SDS011;5580;50.106;8.702;2023-07-13T05:41:28;9.50;;;3.00;;
11054;SDS011;5580;50.106;8.702;2023-07-13T05:43:54;7.70;;;2.90;;
11054;SDS011;5580;50.106;8.702;2023-07-13T05:46:20;8.07;;;3.30;;
11054;SDS011;5580;50.106;8.702;2023-07-13T05:48:46;6.53;;;3.20;;
11054;SDS011;5580;50.106;8.702;2023-07-13T05:51:11;7.80;;;3.10;;
11054;SDS011;5580;50.106;8.702;2023-07-13T05:53:37;6.93;;;3.30;;
11054;SDS011;5580;50.106;8.702;2023-07-13T05:56:03;7.03;;;3.20;;
11054;SDS011;5580;50.106;8.702;2023-07-13T05:58:28;6.27;;;2.67;;
11054;SDS011;5580;50.106;8.702;2023-07-13T06:01:01;7.20;;;3.27;;
11054;SDS011;5580;50.106;8.702;2023-07-13T06:03:29;5.03;;;2.70;;
11054;SDS011;5580;50.106;8.702;2023-07-13T06:05:55;6.97;;;2.80;;
11054;SDS011;5580;50.106;8.702;2023-07-13T06:08:21;6.60;;;3.13;;
11054;SDS011;5580;50.106;8.702;2023-07-13T06:10:46;9.07;;;3.60;;
11054;SDS011;5580;50.106;8.702;2023-07-13T06:13:12;4.90;;;2.80;;
11054;SDS011;5580;50.106;8.702;2023-07-13T06:15:37;7.10;;;2.70;;
11054;SDS011;5580;50.106;8.702;2023-07-13T06:18:03;4.33;;;2.80;;
11054;SDS011;5580;50.106;8.702;2023-07-13T06:20:28;6.00;;;2.63;;
11054;SDS011;5580;50.106;8.702;2023-07-13T06:22:54;7.20;;;2.80;;
11054;SDS011;5580;50.106;8.702;2023-07-13T06:25:20;7.77;;;3.07;;
11054;SDS011;5580;50.106;8.702;2023-07-13T06:27:46;5.30;;;2.97;;
11054;SDS011;5580;50.106;8.702;2023-07-13T06:30:11;5.27;;;2.80;;
11054;SDS011;5580;50.106;8.702;2023-07-13T06:32:37;5.13;;;2.50;;
11054;SDS011;5580;50.106;8.702;2023-07-13T06:35:03;5.90;;;2.60;;
11054;SDS011;5580;50.106;8.702;2023-07-13T06:37:29;4.63;;;2.70;;
11054;SDS011;5580;50.106;8.702;2023-07-13T06:39:54;6.77;;;3.00;;
11054;SDS011;5580;50.106;8.702;2023-07-13T06:42:20;7.33;;;3.17;;
11054;SDS011;5580;50.106;8.702;2023-07-13T06:44:46;6.13;;;3.00;;
11054;SDS011;5580;50.106;8.702;2023-07-13T06:47:11;9.37;;;3.10;;
11054;SDS011;5580;50.106;8.702;2023-07-13T06:49:37;8.10;;;3.00;;
11054;SDS011;5580;50.106;8.702;2023-07-13T06:52:02;9.82;;;3.00;;
11054;SDS011;5580;50.106;8.702;2023-07-13T06:54:29;8.37;;;2.80;;
11054;SDS011;5580;50.106;8.702;2023-07-13T06:56:54;8.10;;;3.30;;
11054;SDS011;5580;50.106;8.702;2023-07-13T06:59:20;9.23;;;3.47;;
11054;SDS011;5580;50.106;8.702;2023-07-13T07:01:45;5.40;;;2.37;;
11054;SDS011;5580;50.106;8.702;2023-07-13T07:04:11;6.60;;;2.30;;
11054;SDS011;5580;50.106;8.702;2023-07-13T07:06:36;6.50;;;2.40;;
11054;SDS011;5580;50.106;8.702;2023-07-13T07:09:02;4.10;;;2.30;;
11054;SDS011;5580;50.106;8.702;2023-07-13T07:11:28;4.77;;;1.93;;
11054;SDS011;5580;50.106;8.702;2023-07-13T07:13:53;7.33;;;2.27;;
11054;SDS011;5580;50.106;8.702;2023-07-13T07:16:20;8.03;;;2.40;;
11054;SDS011;5580;50.106;8.702;2023-07-13T07:18:46;3.47;;;2.37;;
11054;SDS011;5580;50.106;8.702;2023-07-13T07:21:13;7.17;;;2.73;;
11054;SDS011;5580;50.106;8.702;2023-07-13T07:23:38;9.40;;;2.80;;
11054;SDS011;5580;50.106;8.702;2023-07-13T07:26:04;5.47;;;2.50;;
11054;SDS011;5580;50.106;8.702;2023-07-13T07:28:32;8.50;;;2.53;;
11054;SDS011;5580;50.106;8.702;2023-07-13T07:30:57;5.00;;;2.70;;
11054;SDS011;5580;50.106;8.702;2023-07-13T07:33:24;5.67;;;2.50;;
11054;SDS011;5580;50.106;8.702;2023-07-13T07:35:50;5.73;;;2.53;;
11054;SDS011;5580;50.106;8.702;2023-07-13T07:38:16;7.03;;;2.73;;
11054;SDS011;5580;50.106;8.702;2023-07-13T07:40:41;6.57;;;2.80;;
11054;SDS011;5580;50.106;8.702;2023-07-13T07:43:08;9.07;;;2.83;;
11054;SDS011;5580;50.106;8.702;2023-07-13T07:45:34;5.07;;;2.30;;
11054;SDS011;5580;50.106;8.702;2023-07-13T07:48:00;6.80;;;2.07;;
11054;SDS011;5580;50.106;8.702;2023-07-13T07:50:26;6.50;;;2.23;;
11054;SDS011;5580;50.106;8.702;2023-07-13T07:52:53;5.90;;;2.50;;
11054;SDS011;5580;50.106;8.702;2023-07-13T07:55:21;7.70;;;2.67;;
11054;SDS011;5580;50.106;8.702;2023-07-13T07:57:46;4.10;;;2.20;;
11054;SDS011;5580;50.106;8.702;2023-07-13T08:00:12;4.10;;;2.22;;
11054;SDS011;5580;50.106;8.702;2023-07-13T08:02:38;3.17;;;2.05;;
11054;SDS011;5580;50.106;8.702;2023-07-13T08:05:06;6.77;;;2.17;;
11054;SDS011;5580;50.106;8.702;2023-07-13T08:07:37;6.07;;;2.70;;
11054;SDS011;5580;50.106;8.702;2023-07-13T08:10:04;6.30;;;2.40;;
11054;SDS011;5580;50.106;8.702;2023-07-13T08:12:33;6.18;;;2.30;;
11054;SDS011;5580;50.106;8.702;2023-07-13T08:15:02;5.28;;;2.53;;
11054;SDS011;5580;50.106;8.702;2023-07-13T08:17:28;7.30;;;2.28;;
11054;SDS011;5580;50.106;8.702;2023-07-13T08:19:54;5.18;;;2.30;;
11054;SDS011;5580;50.106;8.702;2023-07-13T08:22:20;3.13;;;1.85;;
11054;SDS011;5580;50.106;8.702;2023-07-13T08:24:45;4.13;;;2.08;;
11054;SDS011;5580;50.106;8.702;2023-07-13T08:27:12;3.25;;;2.15;;
11054;SDS011;5580;50.106;8.702;2023-07-13T08:29:39;5.27;;;2.13;;
11054;SDS011;5580;50.106;8.702;2023-07-13T08:32:05;4.30;;;2.20;;
11054;SDS011;5580;50.106;8.702;2023-07-13T08:34:34;5.23;;;2.10;;
11054;SDS011;5580;50.106;8.702;2023-07-13T08:37:00;6.38;;;2.47;;
11054;SDS011;5580;50.106;8.702;2023-07-13T08:39:26;4.95;;;2.45;;
11054;SDS011;5580;50.106;8.702;2023-07-13T08:41:53;4.00;;;2.00;;
11054;SDS011;5580;50.106;8.702;2023-07-13T08:44:27;5.95;;;2.20;;
11054;SDS011;5580;50.106;8.702;2023-07-13T08:47:05;4.60;;;2.50;;
11054;SDS011;5580;50.106;8.702;2023-07-13T08:49:33;7.50;;;2.10;;
11054;SDS011;5580;50.106;8.702;2023-07-13T08:52:05;5.03;;;2.43;;
11054;SDS011;5580;50.106;8.702;2023-07-13T08:54:38;4.57;;;2.20;;
11054;SDS011;5580;50.106;8.702;2023-07-13T08:57:15;7.75;;;2.20;;
11054;SDS011;5580;50.106;8.702;2023-07-13T08:59:44;3.33;;;2.33;;
11054;SDS011;5580;50.106;8.702;2023-07-13T09:02:22;7.40;;;2.35;;
11054;SDS011;5580;50.106;8.702;2023-07-13T09:05:17;13.03;;;2.63;;
11054;SDS011;5580;50.106;8.702;2023-07-13T09:10:49;5.00;;;2.20;;
11054;SDS011;5580;50.106;8.702;2023-07-13T09:16:11;3.33;;;1.70;;
11054;SDS011;5580;50.106;8.702;2023-07-13T09:18:41;3.72;;;2.13;;
11054;SDS011;5580;50.106;8.702;2023-07-13T09:21:14;4.07;;;2.15;;
11054;SDS011;5580;50.106;8.702;2023-07-13T09:23:42;4.70;;;2.20;;
11054;SDS011;5580;50.106;8.702;2023-07-13T09:26:19;4.13;;;1.67;;
11054;SDS011;5580;50.106;8.702;2023-07-13T09:29:10;7.07;;;2.47;;
11054;SDS011;5580;50.106;8.702;2023-07-13T09:31:42;5.33;;;2.23;;
11054;SDS011;5580;50.106;8.702;2023-07-13T09:34:13;5.10;;;2.13;;
11054;SDS011;5580;50.106;8.702;2023-07-13T09:36:38;6.83;;;2.03;;
11054;SDS011;5580;50.106;8.702;2023-07-13T09:44:14;4.63;;;1.93;;
11054;SDS011;5580;50.106;8.702;2023-07-13T09:46:53;4.97;;;2.40;;
11054;SDS011;5580;50.106;8.702;2023-07-13T09:49:24;5.70;;;1.83;;
11054;SDS011;5580;50.106;8.702;2023-07-13T09:51:57;3.10;;;1.80;;
11054;SDS011;5580;50.106;8.702;2023-07-13T09:54:35;5.13;;;1.63;;
11054;SDS011;5580;50.106;8.702;2023-07-13T09:57:03;3.60;;;2.00;;
11054;SDS011;5580;50.106;8.702;2023-07-13T09:59:39;3.87;;;2.10;;
11054;SDS011;5580;50.106;8.702;2023-07-13T10:02:41;3.53;;;1.90;;
11054;SDS011;5580;50.106;8.702;2023-07-13T10:07:31;3.67;;;1.70;;
11054;SDS011;5580;50.106;8.702;2023-07-13T10:09:58;1.93;;;1.70;;
11054;SDS011;5580;50.106;8.702;2023-07-13T10:12:26;3.70;;;1.97;;
11054;SDS011;5580;50.106;8.702;2023-07-13T10:14:56;3.67;;;1.73;;
11054;SDS011;5580;50.106;8.702;2023-07-13T10:17:29;3.47;;;2.10;;
11054;SDS011;5580;50.106;8.702;2023-07-13T10:19:57;5.07;;;2.20;;
11054;SDS011;5580;50.106;8.702;2023-07-13T10:22:31;3.90;;;2.10;;
11054;SDS011;5580;50.106;8.702;2023-07-13T10:25:18;2.77;;;1.80;;
11054;SDS011;5580;50.106;8.702;2023-07-13T10:27:47;2.60;;;2.30;;
11054;SDS011;5580;50.106;8.702;2023-07-13T10:32:50;4.88;;;1.95;;
11054;SDS011;5580;50.106;8.702;2023-07-13T10:35:18;4.15;;;2.35;;
11054;SDS011;5580;50.106;8.702;2023-07-13T10:40:39;4.40;;;2.30;;
11054;SDS011;5580;50.106;8.702;2023-07-13T10:43:14;2.57;;;2.30;;
11054;SDS011;5580;50.106;8.702;2023-07-13T10:45:52;4.77;;;2.37;;
11054;SDS011;5580;50.106;8.702;2023-07-13T10:48:19;4.00;;;2.28;;
11054;SDS011;5580;50.106;8.702;2023-07-13T10:50:49;3.53;;;2.20;;
11054;SDS011;5580;50.106;8.702;2023-07-13T10:53:22;5.50;;;2.37;;
11054;SDS011;5580;50.106;8.702;2023-07-13T10:55:56;4.77;;;2.43;;
11054;SDS011;5580;50.106;8.702;2023-07-13T11:01:17;5.47;;;2.30;;
11054;SDS011;5580;50.106;8.702;2023-07-13T11:06:13;5.25;;;2.65;;
11054;SDS011;5580;50.106;8.702;2023-07-13T11:11:31;4.03;;;2.67;;
11054;SDS011;5580;50.106;8.702;2023-07-13T11:14:00;4.33;;;2.70;;
11054;SDS011;5580;50.106;8.702;2023-07-13T11:16:38;3.13;;;2.07;;
11054;SDS011;5580;50.106;8.702;2023-07-13T11:22:01;6.07;;;2.80;;
11054;SDS011;5580;50.106;8.702;2023-07-13T11:24:29;3.80;;;2.30;;
11054;SDS011;5580;50.106;8.702;2023-07-13T11:27:27;4.87;;;2.70;;
11054;SDS011;5580;50.106;8.702;2023-07-13T11:32:45;5.37;;;2.90;;
11054;SDS011;5580;50.106;8.702;2023-07-13T11:35:37;6.57;;;2.90;;
11054;SDS011;5580;50.106;8.702;2023-07-13T11:38:17;3.73;;;2.40;;
11054;SDS011;5580;50.106;8.702;2023-07-13T11:40:45;3.70;;;2.53;;
11054;SDS011;5580;50.106;8.702;2023-07-13T11:43:14;5.30;;;2.58;;
11054;SDS011;5580;50.106;8.702;2023-07-13T11:45:42;4.13;;;2.83;;
11054;SDS011;5580;50.106;8.702;2023-07-13T11:51:04;4.33;;;2.93;;
11054;SDS011;5580;50.106;8.702;2023-07-13T11:53:36;4.45;;;2.78;;
11054;SDS011;5580;50.106;8.702;2023-07-13T11:56:05;4.95;;;3.03;;
11054;SDS011;5580;50.106;8.702;2023-07-13T11:58:31;3.60;;;2.40;;
11054;SDS011;5580;50.106;8.702;2023-07-13T12:00:58;5.17;;;2.80;;
11054;SDS011;5580;50.106;8.702;2023-07-13T12:03:26;3.45;;;2.70;;
11054;SDS011;5580;50.106;8.702;2023-07-13T12:05:57;4.10;;;2.40;;
11054;SDS011;5580;50.106;8.702;2023-07-13T12:08:24;4.53;;;2.58;;
11054;SDS011;5580;50.106;8.702;2023-07-13T12:10:56;5.93;;;3.07;;
11054;SDS011;5580;50.106;8.702;2023-07-13T12:13:23;4.60;;;2.70;;
11054;SDS011;5580;50.106;8.702;2023-07-13T12:15:52;3.90;;;2.50;;
11054;SDS011;5580;50.106;8.702;2023-07-13T12:18:20;4.85;;;2.80;;
11054;SDS011;5580;50.106;8.702;2023-07-13T12:20:49;7.33;;;2.80;;
11054;SDS011;5580;50.106;8.702;2023-07-13T12:25:57;5.73;;;2.50;;
11054;SDS011;5580;50.106;8.702;2023-07-13T12:31:07;2.75;;;2.55;;
11054;SDS011;5580;50.106;8.702;2023-07-13T12:33:49;4.00;;;2.60;;
11054;SDS011;5580;50.106;8.702;2023-07-13T12:36:22;4.00;;;2.57;;
11054;SDS011;5580;50.106;8.702;2023-07-13T12:38:47;3.22;;;2.50;;
11054;SDS011;5580;50.106;8.702;2023-07-13T12:41:14;5.30;;;2.90;;
11054;SDS011;5580;50.106;8.702;2023-07-13T12:43:40;4.47;;;2.60;;
11054;SDS011;5580;50.106;8.702;2023-07-13T12:48:47;4.20;;;2.60;;
11054;SDS011;5580;50.106;8.702;2023-07-13T12:51:17;5.13;;;2.60;;
11054;SDS011;5580;50.106;8.702;2023-07-13T12:53:50;6.40;;;2.67;;
11054;SDS011;5580;50.106;8.702;2023-07-13T12:56:23;4.87;;;2.60;;
11054;SDS011;5580;50.106;8.702;2023-07-13T12:58:57;4.30;;;3.00;;
11054;SDS011;5580;50.106;8.702;2023-07-13T13:01:26;3.05;;;2.63;;
11054;SDS011;5580;50.106;8.702;2023-07-13T13:03:54;6.20;;;3.20;;
11054;SDS011;5580;50.106;8.702;2023-07-13T13:06:24;6.53;;;2.53;;
11054;SDS011;5580;50.106;8.702;2023-07-13T13:08:55;5.30;;;3.23;;
11054;SDS011;5580;50.106;8.702;2023-07-13T13:11:23;6.00;;;3.17;;
11054;SDS011;5580;50.106;8.702;2023-07-13T13:13:51;6.20;;;3.13;;
11054;SDS011;5580;50.106;8.702;2023-07-13T13:16:21;3.27;;;2.87;;
11054;SDS011;5580;50.106;8.702;2023-07-13T13:19:44;3.23;;;2.80;;
11054;SDS011;5580;50.106;8.702;2023-07-13T13:21:48;3.75;;;2.80;;
11054;SDS011;5580;50.106;8.702;2023-07-13T13:24:18;5.30;;;2.80;;
11054;SDS011;5580;50.106;8.702;2023-07-13T13:26:49;5.05;;;3.00;;
11054;SDS011;5580;50.106;8.702;2023-07-13T13:29:17;3.45;;;2.53;;
11054;SDS011;5580;50.106;8.702;2023-07-13T13:31:44;5.77;;;2.57;;
11054;SDS011;5580;50.106;8.702;2023-07-13T13:34:11;5.57;;;2.67;;
11054;SDS011;5580;50.106;8.702;2023-07-13T13:36:39;4.50;;;2.50;;
11054;SDS011;5580;50.106;8.702;2023-07-13T13:39:15;5.03;;;2.58;;
11054;SDS011;5580;50.106;8.702;2023-07-13T13:41:49;6.67;;;2.80;;
11054;SDS011;5580;50.106;8.702;2023-07-13T13:44:17;7.38;;;2.85;;
11054;SDS011;5580;50.106;8.702;2023-07-13T13:46:44;6.10;;;2.45;;
11054;SDS011;5580;50.106;8.702;2023-07-13T13:49:30;7.83;;;2.60;;
11054;SDS011;5580;50.106;8.702;2023-07-13T13:51:56;5.87;;;2.53;;
11054;SDS011;5580;50.106;8.702;2023-07-13T13:54:22;4.33;;;2.87;;
11054;SDS011;5580;50.106;8.702;2023-07-13T13:56:50;5.30;;;2.70;;
11054;SDS011;5580;50.106;8.702;2023-07-13T13:59:17;5.10;;;2.60;;
11054;SDS011;5580;50.106;8.702;2023-07-13T14:01:44;4.90;;;2.63;;
11054;SDS011;5580;50.106;8.702;2023-07-13T14:04:15;3.57;;;2.40;;
11054;SDS011;5580;50.106;8.702;2023-07-13T14:06:45;5.13;;;2.57;;
11054;SDS011;5580;50.106;8.702;2023-07-13T14:09:12;5.87;;;2.80;;
11054;SDS011;5580;50.106;8.702;2023-07-13T14:11:43;5.20;;;2.73;;
11054;SDS011;5580;50.106;8.702;2023-07-13T14:14:12;5.97;;;2.90;;
11054;SDS011;5580;50.106;8.702;2023-07-13T14:16:41;2.97;;;2.38;;
11054;SDS011;5580;50.106;8.702;2023-07-13T14:19:08;6.17;;;2.40;;
11054;SDS011;5580;50.106;8.702;2023-07-13T14:21:37;4.33;;;2.47;;
11054;SDS011;5580;50.106;8.702;2023-07-13T14:24:03;4.55;;;2.60;;
11054;SDS011;5580;50.106;8.702;2023-07-13T14:26:29;5.23;;;2.53;;
11054;SDS011;5580;50.106;8.702;2023-07-13T14:28:59;4.72;;;2.90;;
11054;SDS011;5580;50.106;8.702;2023-07-13T14:31:26;6.07;;;2.80;;
11054;SDS011;5580;50.106;8.702;2023-07-13T14:33:54;7.15;;;2.78;;
11054;SDS011;5580;50.106;8.702;2023-07-13T14:36:23;4.38;;;2.70;;
11054;SDS011;5580;50.106;8.702;2023-07-13T14:38:58;6.20;;;2.58;;
11054;SDS011;5580;50.106;8.702;2023-07-13T14:41:26;6.38;;;2.83;;
11054;SDS011;5580;50.106;8.702;2023-07-13T14:43:51;5.78;;;2.78;;
11054;SDS011;5580;50.106;8.702;2023-07-13T14:49:00;3.92;;;2.45;;
11054;SDS011;5580;50.106;8.702;2023-07-13T14:51:28;5.82;;;2.85;;
11054;SDS011;5580;50.106;8.702;2023-07-13T14:53:55;5.20;;;2.83;;
11054;SDS011;5580;50.106;8.702;2023-07-13T14:56:21;3.53;;;2.70;;
11054;SDS011;5580;50.106;8.702;2023-07-13T14:58:46;6.10;;;2.63;;
11054;SDS011;5580;50.106;8.702;2023-07-13T15:01:15;5.70;;;2.70;;
11054;SDS011;5580;50.106;8.702;2023-07-13T15:03:43;6.83;;;2.53;;
11054;SDS011;5580;50.106;8.702;2023-07-13T15:06:11;4.45;;;2.40;;
11054;SDS011;5580;50.106;8.702;2023-07-13T15:08:38;5.13;;;2.65;;
11054;SDS011;5580;50.106;8.702;2023-07-13T15:11:05;4.65;;;2.50;;
11054;SDS011;5580;50.106;8.702;2023-07-13T15:13:36;4.13;;;2.45;;
11054;SDS011;5580;50.106;8.702;2023-07-13T15:16:04;3.87;;;2.70;;
11054;SDS011;5580;50.106;8.702;2023-07-13T15:18:34;4.63;;;2.80;;
11054;SDS011;5580;50.106;8.702;2023-07-13T15:21:02;4.53;;;2.53;;
11054;SDS011;5580;50.106;8.702;2023-07-13T15:23:29;5.15;;;2.70;;
11054;SDS011;5580;50.106;8.702;2023-07-13T15:25:54;5.18;;;2.75;;
11054;SDS011;5580;50.106;8.702;2023-07-13T15:28:20;4.97;;;2.60;;
11054;SDS011;5580;50.106;8.702;2023-07-13T15:30:46;5.68;;;2.67;;
11054;SDS011;5580;50.106;8.702;2023-07-13T15:35:50;3.97;;;2.50;;
11054;SDS011;5580;50.106;8.702;2023-07-13T15:38:20;5.87;;;2.90;;
11054;SDS011;5580;50.106;8.702;2023-07-13T15:40:51;4.43;;;2.70;;
11054;SDS011;5580;50.106;8.702;2023-07-13T15:43:18;3.07;;;2.60;;
11054;SDS011;5580;50.106;8.702;2023-07-13T15:45:44;5.57;;;2.30;;
11054;SDS011;5580;50.106;8.702;2023-07-13T15:48:18;6.60;;;2.80;;
11054;SDS011;5580;50.106;8.702;2023-07-13T15:50:49;5.00;;;2.37;;
11054;SDS011;5580;50.106;8.702;2023-07-13T15:53:18;4.37;;;2.47;;
11054;SDS011;5580;50.106;8.702;2023-07-13T15:55:49;5.00;;;2.67;;
11054;SDS011;5580;50.106;8.702;2023-07-13T15:58:15;6.53;;;2.70;;
11054;SDS011;5580;50.106;8.702;2023-07-13T16:00:41;5.10;;;2.60;;